sensor_id;sensor_type;location;lat;lon;timestamp;temperature;humidity
40556;DHT22;26250;45.422;11.100;2023-01-08T00:00:56;12.20;98.10
40556;DHT22;26250;45.422;11.100;2023-01-08T00:03:23;12.30;98.00
40556;DHT22;26250;45.422;11.100;2023-01-08T00:05:50;12.30;98.00
40556;DHT22;26250;45.422;11.100;2023-01-08T00:08:17;12.30;98.10
40556;DHT22;26250;45.422;11.100;2023-01-08T00:10:44;12.30;98.00
40556;DHT22;26250;45.422;11.100;2023-01-08T00:13:11;12.40;97.90
40556;DHT22;26250;45.422;11.100;2023-01-08T00:15:38;12.20;98.10
40556;DHT22;26250;45.422;11.100;2023-01-08T00:18:05;12.20;98.20
40556;DHT22;26250;45.422;11.100;2023-01-08T00:20:32;12.20;98.20
40556;DHT22;26250;45.422;11.100;2023-01-08T00:22:59;11.90;99.00
40556;DHT22;26250;45.422;11.100;2023-01-08T00:25:26;11.90;98.80
40556;DHT22;26250;45.422;11.100;2023-01-08T00:27:53;12.00;98.70
40556;DHT22;26250;45.422;11.100;2023-01-08T00:30:20;12.00;98.80
40556;DHT22;26250;45.422;11.100;2023-01-08T00:32:46;12.00;98.50
40556;DHT22;26250;45.422;11.100;2023-01-08T00:35:13;12.10;98.50
40556;DHT22;26250;45.422;11.100;2023-01-08T00:37:40;12.20;98.30
40556;DHT22;26250;45.422;11.100;2023-01-08T00:40:08;12.20;97.80
40556;DHT22;26250;45.422;11.100;2023-01-08T00:42:35;12.10;98.00
40556;DHT22;26250;45.422;11.100;2023-01-08T00:45:01;12.00;98.20
40556;DHT22;26250;45.422;11.100;2023-01-08T00:47:28;11.90;98.10
40556;DHT22;26250;45.422;11.100;2023-01-08T00:49:55;12.00;98.30
40556;DHT22;26250;45.422;11.100;2023-01-08T00:52:22;12.10;98.40
40556;DHT22;26250;45.422;11.100;2023-01-08T00:54:49;12.20;98.10
40556;DHT22;26250;45.422;11.100;2023-01-08T00:57:16;12.10;98.20
40556;DHT22;26250;45.422;11.100;2023-01-08T00:59:42;12.10;98.40
40556;DHT22;26250;45.422;11.100;2023-01-08T01:02:09;12.20;98.10
40556;DHT22;26250;45.422;11.100;2023-01-08T01:04:36;12.20;98.10
40556;DHT22;26250;45.422;11.100;2023-01-08T01:07:03;12.20;98.10
40556;DHT22;26250;45.422;11.100;2023-01-08T01:09:30;12.30;98.10
40556;DHT22;26250;45.422;11.100;2023-01-08T01:11:57;12.30;98.20
40556;DHT22;26250;45.422;11.100;2023-01-08T01:14:24;12.40;98.10
40556;DHT22;26250;45.422;11.100;2023-01-08T01:16:51;12.40;98.00
40556;DHT22;26250;45.422;11.100;2023-01-08T01:19:18;12.30;98.00
40556;DHT22;26250;45.422;11.100;2023-01-08T01:21:45;12.30;98.20
40556;DHT22;26250;45.422;11.100;2023-01-08T01:24:12;12.30;98.20
40556;DHT22;26250;45.422;11.100;2023-01-08T01:26:40;12.30;97.90
40556;DHT22;26250;45.422;11.100;2023-01-08T01:29:07;12.30;97.80
40556;DHT22;26250;45.422;11.100;2023-01-08T01:31:34;12.30;97.90
40556;DHT22;26250;45.422;11.100;2023-01-08T01:34:00;12.30;97.90
40556;DHT22;26250;45.422;11.100;2023-01-08T01:36:28;12.30;97.80
40556;DHT22;26250;45.422;11.100;2023-01-08T01:38:55;12.40;97.70
40556;DHT22;26250;45.422;11.100;2023-01-08T01:41:31;12.50;97.80
40556;DHT22;26250;45.422;11.100;2023-01-08T01:50:12;12.50;97.50
40556;DHT22;26250;45.422;11.100;2023-01-08T01:52:44;12.60;97.30
40556;DHT22;26250;45.422;11.100;2023-01-08T01:55:13;12.60;97.40
40556;DHT22;26250;45.422;11.100;2023-01-08T01:57:46;12.50;97.50
40556;DHT22;26250;45.422;11.100;2023-01-08T02:00:15;12.40;97.60
40556;DHT22;26250;45.422;11.100;2023-01-08T02:02:42;12.50;97.40
40556;DHT22;26250;45.422;11.100;2023-01-08T02:05:09;12.60;97.30
40556;DHT22;26250;45.422;11.100;2023-01-08T02:07:41;12.50;97.40
40556;DHT22;26250;45.422;11.100;2023-01-08T02:10:49;12.50;97.60
40556;DHT22;26250;45.422;11.100;2023-01-08T02:13:18;12.50;97.60
40556;DHT22;26250;45.422;11.100;2023-01-08T02:16:00;12.30;97.90
40556;DHT22;26250;45.422;11.100;2023-01-08T02:18:38;12.30;98.10
40556;DHT22;26250;45.422;11.100;2023-01-08T02:21:13;12.40;97.80
40556;DHT22;26250;45.422;11.100;2023-01-08T02:26:32;12.50;97.70
40556;DHT22;26250;45.422;11.100;2023-01-08T02:29:07;12.40;97.70
40556;DHT22;26250;45.422;11.100;2023-01-08T02:31:35;12.30;97.80
40556;DHT22;26250;45.422;11.100;2023-01-08T02:34:03;12.20;98.10
40556;DHT22;26250;45.422;11.100;2023-01-08T02:36:44;12.10;98.40
40556;DHT22;26250;45.422;11.100;2023-01-08T02:47:27;11.70;99.30
40556;DHT22;26250;45.422;11.100;2023-01-08T02:53:22;11.80;99.20
40556;DHT22;26250;45.422;11.100;2023-01-08T02:56:04;12.10;98.80
40556;DHT22;26250;45.422;11.100;2023-01-08T02:58:33;12.10;98.60
40556;DHT22;26250;45.422;11.100;2023-01-08T03:01:02;12.20;98.40
40556;DHT22;26250;45.422;11.100;2023-01-08T03:03:30;12.30;98.20
40556;DHT22;26250;45.422;11.100;2023-01-08T03:06:03;12.20;98.00
40556;DHT22;26250;45.422;11.100;2023-01-08T03:08:34;12.10;98.30
40556;DHT22;26250;45.422;11.100;2023-01-08T03:11:06;12.10;98.40
40556;DHT22;26250;45.422;11.100;2023-01-08T03:16:08;12.20;98.30
40556;DHT22;26250;45.422;11.100;2023-01-08T03:18:41;12.10;98.40
40556;DHT22;26250;45.422;11.100;2023-01-08T03:21:12;12.10;98.40
40556;DHT22;26250;45.422;11.100;2023-01-08T03:23:39;12.00;98.60
40556;DHT22;26250;45.422;11.100;2023-01-08T03:26:08;11.90;98.60
40556;DHT22;26250;45.422;11.100;2023-01-08T03:28:42;11.90;98.80
40556;DHT22;26250;45.422;11.100;2023-01-08T03:31:14;11.90;98.80
40556;DHT22;26250;45.422;11.100;2023-01-08T03:33:43;12.10;98.80
40556;DHT22;26250;45.422;11.100;2023-01-08T03:36:13;12.20;98.50
40556;DHT22;26250;45.422;11.100;2023-01-08T03:38:55;12.20;98.30
40556;DHT22;26250;45.422;11.100;2023-01-08T03:41:23;12.20;98.40
40556;DHT22;26250;45.422;11.100;2023-01-08T03:43:51;12.30;98.30
40556;DHT22;26250;45.422;11.100;2023-01-08T03:46:22;12.30;98.20
40556;DHT22;26250;45.422;11.100;2023-01-08T03:48:54;12.30;98.10
40556;DHT22;26250;45.422;11.100;2023-01-08T03:51:22;12.20;98.10
40556;DHT22;26250;45.422;11.100;2023-01-08T03:53:52;12.20;98.10
40556;DHT22;26250;45.422;11.100;2023-01-08T03:56:19;12.20;98.20
40556;DHT22;26250;45.422;11.100;2023-01-08T03:58:47;12.30;98.20
40556;DHT22;26250;45.422;11.100;2023-01-08T04:01:13;12.30;98.10
40556;DHT22;26250;45.422;11.100;2023-01-08T04:03:40;12.30;98.10
40556;DHT22;26250;45.422;11.100;2023-01-08T04:06:07;12.30;98.10
40556;DHT22;26250;45.422;11.100;2023-01-08T04:08:34;12.20;98.20
40556;DHT22;26250;45.422;11.100;2023-01-08T04:11:01;12.10;98.60
40556;DHT22;26250;45.422;11.100;2023-01-08T04:13:28;12.00;98.90
40556;DHT22;26250;45.422;11.100;2023-01-08T04:15:55;11.90;99.10
40556;DHT22;26250;45.422;11.100;2023-01-08T04:18:21;11.90;98.90
40556;DHT22;26250;45.422;11.100;2023-01-08T04:20:48;11.90;98.80
40556;DHT22;26250;45.422;11.100;2023-01-08T04:23:15;12.10;98.70
40556;DHT22;26250;45.422;11.100;2023-01-08T04:25:42;12.20;98.40
40556;DHT22;26250;45.422;11.100;2023-01-08T04:28:09;12.20;98.20
40556;DHT22;26250;45.422;11.100;2023-01-08T04:30:36;12.20;98.20
40556;DHT22;26250;45.422;11.100;2023-01-08T04:33:03;12.20;98.10
40556;DHT22;26250;45.422;11.100;2023-01-08T04:35:30;12.30;98.00
40556;DHT22;26250;45.422;11.100;2023-01-08T04:37:57;12.20;98.00
40556;DHT22;26250;45.422;11.100;2023-01-08T04:40:24;12.10;98.10
40556;DHT22;26250;45.422;11.100;2023-01-08T04:42:50;12.10;98.20
40556;DHT22;26250;45.422;11.100;2023-01-08T04:45:18;12.20;98.20
40556;DHT22;26250;45.422;11.100;2023-01-08T04:47:45;12.20;98.20
40556;DHT22;26250;45.422;11.100;2023-01-08T04:50:12;12.20;98.20
40556;DHT22;26250;45.422;11.100;2023-01-08T04:52:38;12.20;98.10
40556;DHT22;26250;45.422;11.100;2023-01-08T04:55:05;12.20;98.10
40556;DHT22;26250;45.422;11.100;2023-01-08T04:57:32;12.20;98.20
40556;DHT22;26250;45.422;11.100;2023-01-08T04:59:59;12.20;98.20
40556;DHT22;26250;45.422;11.100;2023-01-08T05:02:26;12.20;98.30
40556;DHT22;26250;45.422;11.100;2023-01-08T05:04:53;12.20;98.30
40556;DHT22;26250;45.422;11.100;2023-01-08T05:07:20;12.10;98.40
40556;DHT22;26250;45.422;11.100;2023-01-08T05:09:47;12.10;98.50
40556;DHT22;26250;45.422;11.100;2023-01-08T05:12:14;12.00;98.60
40556;DHT22;26250;45.422;11.100;2023-01-08T05:14:41;12.00;99.10
40556;DHT22;26250;45.422;11.100;2023-01-08T05:17:08;12.00;98.90
40556;DHT22;26250;45.422;11.100;2023-01-08T05:19:35;11.90;98.80
40556;DHT22;26250;45.422;11.100;2023-01-08T05:22:04;11.90;98.90
40556;DHT22;26250;45.422;11.100;2023-01-08T05:24:30;11.80;99.10
40556;DHT22;26250;45.422;11.100;2023-01-08T05:26:57;11.80;99.30
40556;DHT22;26250;45.422;11.100;2023-01-08T05:29:24;11.70;99.20
40556;DHT22;26250;45.422;11.100;2023-01-08T05:31:51;11.80;99.30
40556;DHT22;26250;45.422;11.100;2023-01-08T05:34:18;11.70;99.20
40556;DHT22;26250;45.422;11.100;2023-01-08T05:36:44;11.60;99.50
40556;DHT22;26250;45.422;11.100;2023-01-08T05:39:11;11.60;99.60
40556;DHT22;26250;45.422;11.100;2023-01-08T05:41:38;11.60;99.60
40556;DHT22;26250;45.422;11.100;2023-01-08T05:44:05;11.60;99.50
40556;DHT22;26250;45.422;11.100;2023-01-08T05:46:32;11.60;99.70
40556;DHT22;26250;45.422;11.100;2023-01-08T05:48:59;11.60;99.80
40556;DHT22;26250;45.422;11.100;2023-01-08T05:51:26;11.70;99.60
40556;DHT22;26250;45.422;11.100;2023-01-08T05:53:53;11.80;99.40
40556;DHT22;26250;45.422;11.100;2023-01-08T05:56:20;11.80;99.20
40556;DHT22;26250;45.422;11.100;2023-01-08T05:58:47;11.90;99.00
40556;DHT22;26250;45.422;11.100;2023-01-08T06:01:14;11.90;98.90
40556;DHT22;26250;45.422;11.100;2023-01-08T06:03:42;11.90;98.80
40556;DHT22;26250;45.422;11.100;2023-01-08T06:06:10;11.80;98.90
40556;DHT22;26250;45.422;11.100;2023-01-08T06:08:37;11.80;99.10
40556;DHT22;26250;45.422;11.100;2023-01-08T06:11:07;11.70;99.10
40556;DHT22;26250;45.422;11.100;2023-01-08T06:13:34;11.60;99.40
40556;DHT22;26250;45.422;11.100;2023-01-08T06:16:03;11.50;99.60
40556;DHT22;26250;45.422;11.100;2023-01-08T06:18:30;11.40;99.80
40556;DHT22;26250;45.422;11.100;2023-01-08T06:20:57;11.40;99.80
40556;DHT22;26250;45.422;11.100;2023-01-08T06:23:24;11.40;99.60
40556;DHT22;26250;45.422;11.100;2023-01-08T06:25:56;11.30;99.80
40556;DHT22;26250;45.422;11.100;2023-01-08T06:28:23;11.40;99.80
40556;DHT22;26250;45.422;11.100;2023-01-08T06:30:50;11.40;99.80
40556;DHT22;26250;45.422;11.100;2023-01-08T06:33:18;11.40;99.70
40556;DHT22;26250;45.422;11.100;2023-01-08T06:35:47;11.50;99.60
40556;DHT22;26250;45.422;11.100;2023-01-08T06:38:14;11.50;99.60
40556;DHT22;26250;45.422;11.100;2023-01-08T06:40:41;11.50;99.60
40556;DHT22;26250;45.422;11.100;2023-01-08T06:43:08;11.50;99.40
40556;DHT22;26250;45.422;11.100;2023-01-08T06:45:35;11.50;99.40
40556;DHT22;26250;45.422;11.100;2023-01-08T06:48:03;11.50;99.50
40556;DHT22;26250;45.422;11.100;2023-01-08T06:50:32;11.50;99.50
40556;DHT22;26250;45.422;11.100;2023-01-08T06:52:59;11.60;99.40
40556;DHT22;26250;45.422;11.100;2023-01-08T06:55:26;11.60;99.30
40556;DHT22;26250;45.422;11.100;2023-01-08T06:57:54;11.60;99.20
40556;DHT22;26250;45.422;11.100;2023-01-08T07:00:21;11.70;99.10
40556;DHT22;26250;45.422;11.100;2023-01-08T07:02:49;11.70;99.20
40556;DHT22;26250;45.422;11.100;2023-01-08T07:05:16;11.70;99.20
40556;DHT22;26250;45.422;11.100;2023-01-08T07:07:44;11.80;99.10
40556;DHT22;26250;45.422;11.100;2023-01-08T07:10:11;11.80;99.10
40556;DHT22;26250;45.422;11.100;2023-01-08T07:12:38;11.80;98.90
40556;DHT22;26250;45.422;11.100;2023-01-08T07:15:05;11.80;99.00
40556;DHT22;26250;45.422;11.100;2023-01-08T07:17:32;11.80;99.00
40556;DHT22;26250;45.422;11.100;2023-01-08T07:19:59;11.80;98.80
40556;DHT22;26250;45.422;11.100;2023-01-08T07:22:26;11.80;98.80
40556;DHT22;26250;45.422;11.100;2023-01-08T07:24:53;11.80;99.00
40556;DHT22;26250;45.422;11.100;2023-01-08T07:27:20;11.70;99.10
40556;DHT22;26250;45.422;11.100;2023-01-08T07:29:47;11.70;99.20
40556;DHT22;26250;45.422;11.100;2023-01-08T07:32:14;11.60;99.90
40556;DHT22;26250;45.422;11.100;2023-01-08T07:34:41;11.70;99.50
40556;DHT22;26250;45.422;11.100;2023-01-08T07:37:08;11.70;99.40
40556;DHT22;26250;45.422;11.100;2023-01-08T07:39:35;11.80;99.20
40556;DHT22;26250;45.422;11.100;2023-01-08T07:42:02;11.80;99.20
40556;DHT22;26250;45.422;11.100;2023-01-08T07:44:29;11.70;98.90
40556;DHT22;26250;45.422;11.100;2023-01-08T07:46:56;11.60;99.30
40556;DHT22;26250;45.422;11.100;2023-01-08T07:49:23;11.50;99.40
40556;DHT22;26250;45.422;11.100;2023-01-08T07:51:50;11.60;99.30
40556;DHT22;26250;45.422;11.100;2023-01-08T07:54:16;11.70;99.30
40556;DHT22;26250;45.422;11.100;2023-01-08T07:56:43;11.80;99.10
40556;DHT22;26250;45.422;11.100;2023-01-08T07:59:10;11.80;99.20
40556;DHT22;26250;45.422;11.100;2023-01-08T08:01:37;11.70;99.10
40556;DHT22;26250;45.422;11.100;2023-01-08T08:04:04;11.70;99.20
40556;DHT22;26250;45.422;11.100;2023-01-08T08:06:31;11.70;99.30
40556;DHT22;26250;45.422;11.100;2023-01-08T08:08:58;11.70;99.50
40556;DHT22;26250;45.422;11.100;2023-01-08T08:11:25;11.70;99.50
40556;DHT22;26250;45.422;11.100;2023-01-08T08:13:52;11.70;99.40
40556;DHT22;26250;45.422;11.100;2023-01-08T08:16:22;11.80;99.40
40556;DHT22;26250;45.422;11.100;2023-01-08T08:18:49;11.60;99.90
40556;DHT22;26250;45.422;11.100;2023-01-08T08:21:16;11.50;99.90
40556;DHT22;26250;45.422;11.100;2023-01-08T08:23:42;11.60;99.90
40556;DHT22;26250;45.422;11.100;2023-01-08T08:26:09;11.70;99.80
40556;DHT22;26250;45.422;11.100;2023-01-08T08:28:36;11.60;99.90
40556;DHT22;26250;45.422;11.100;2023-01-08T08:31:03;11.60;99.90
40556;DHT22;26250;45.422;11.100;2023-01-08T08:33:30;11.60;99.90
40556;DHT22;26250;45.422;11.100;2023-01-08T08:35:57;11.50;99.90
40556;DHT22;26250;45.422;11.100;2023-01-08T08:38:25;11.60;99.90
40556;DHT22;26250;45.422;11.100;2023-01-08T08:40:52;11.70;99.90
40556;DHT22;26250;45.422;11.100;2023-01-08T08:43:19;11.70;99.70
40556;DHT22;26250;45.422;11.100;2023-01-08T08:45:46;11.70;99.80
40556;DHT22;26250;45.422;11.100;2023-01-08T08:48:13;11.70;99.80
40556;DHT22;26250;45.422;11.100;2023-01-08T08:50:42;11.70;99.90
40556;DHT22;26250;45.422;11.100;2023-01-08T08:53:09;11.70;99.50
40556;DHT22;26250;45.422;11.100;2023-01-08T08:55:36;11.70;99.50
40556;DHT22;26250;45.422;11.100;2023-01-08T08:58:05;11.60;99.30
40556;DHT22;26250;45.422;11.100;2023-01-08T09:00:32;11.60;98.60
40556;DHT22;26250;45.422;11.100;2023-01-08T09:02:59;11.50;99.00
40556;DHT22;26250;45.422;11.100;2023-01-08T09:05:26;11.50;98.70
40556;DHT22;26250;45.422;11.100;2023-01-08T09:07:54;11.40;98.40
40556;DHT22;26250;45.422;11.100;2023-01-08T09:10:22;11.40;98.70
40556;DHT22;26250;45.422;11.100;2023-01-08T09:12:49;11.40;99.10
40556;DHT22;26250;45.422;11.100;2023-01-08T09:15:16;11.40;98.80
40556;DHT22;26250;45.422;11.100;2023-01-08T09:17:43;11.50;98.60
40556;DHT22;26250;45.422;11.100;2023-01-08T09:20:10;11.40;98.80
40556;DHT22;26250;45.422;11.100;2023-01-08T09:22:37;11.30;99.10
40556;DHT22;26250;45.422;11.100;2023-01-08T09:25:04;11.40;99.20
40556;DHT22;26250;45.422;11.100;2023-01-08T09:27:31;11.20;99.10
40556;DHT22;26250;45.422;11.100;2023-01-08T09:29:58;11.20;99.50
40556;DHT22;26250;45.422;11.100;2023-01-08T09:32:25;11.30;99.20
40556;DHT22;26250;45.422;11.100;2023-01-08T09:34:52;11.30;99.20
40556;DHT22;26250;45.422;11.100;2023-01-08T09:37:18;11.40;99.20
40556;DHT22;26250;45.422;11.100;2023-01-08T09:39:45;11.30;99.10
40556;DHT22;26250;45.422;11.100;2023-01-08T09:42:22;11.20;99.20
40556;DHT22;26250;45.422;11.100;2023-01-08T09:44:53;11.20;98.80
40556;DHT22;26250;45.422;11.100;2023-01-08T09:47:38;11.10;99.30
40556;DHT22;26250;45.422;11.100;2023-01-08T09:50:11;11.10;99.70
40556;DHT22;26250;45.422;11.100;2023-01-08T09:52:39;11.20;99.40
40556;DHT22;26250;45.422;11.100;2023-01-08T09:55:12;11.10;99.60
40556;DHT22;26250;45.422;11.100;2023-01-08T09:57:40;11.20;99.20
40556;DHT22;26250;45.422;11.100;2023-01-08T10:00:14;11.20;99.50
40556;DHT22;26250;45.422;11.100;2023-01-08T10:02:42;11.20;99.30
40556;DHT22;26250;45.422;11.100;2023-01-08T10:05:16;11.20;99.30
40556;DHT22;26250;45.422;11.100;2023-01-08T10:07:44;11.20;99.20
40556;DHT22;26250;45.422;11.100;2023-01-08T10:10:22;11.20;99.20
40556;DHT22;26250;45.422;11.100;2023-01-08T10:12:50;11.20;98.90
40556;DHT22;26250;45.422;11.100;2023-01-08T10:15:19;11.20;99.10
40556;DHT22;26250;45.422;11.100;2023-01-08T10:18:04;11.20;99.20
40556;DHT22;26250;45.422;11.100;2023-01-08T10:20:32;11.30;99.00
40556;DHT22;26250;45.422;11.100;2023-01-08T10:23:13;11.30;99.30
40556;DHT22;26250;45.422;11.100;2023-01-08T10:28:24;11.40;98.80
40556;DHT22;26250;45.422;11.100;2023-01-08T10:30:52;11.50;98.90
40556;DHT22;26250;45.422;11.100;2023-01-08T10:33:25;11.60;98.60
40556;DHT22;26250;45.422;11.100;2023-01-08T10:36:02;11.40;98.40
40556;DHT22;26250;45.422;11.100;2023-01-08T10:38:35;11.40;98.90
40556;DHT22;26250;45.422;11.100;2023-01-08T10:41:13;11.50;98.80
40556;DHT22;26250;45.422;11.100;2023-01-08T10:43:54;11.50;98.70
40556;DHT22;26250;45.422;11.100;2023-01-08T10:46:33;11.40;98.90
40556;DHT22;26250;45.422;11.100;2023-01-08T10:49:04;11.50;99.20
40556;DHT22;26250;45.422;11.100;2023-01-08T10:51:32;11.40;99.30
40556;DHT22;26250;45.422;11.100;2023-01-08T10:54:19;11.40;99.50
40556;DHT22;26250;45.422;11.100;2023-01-08T10:56:48;11.40;99.60
40556;DHT22;26250;45.422;11.100;2023-01-08T10:59:22;11.40;99.70
40556;DHT22;26250;45.422;11.100;2023-01-08T11:01:53;11.50;99.50
40556;DHT22;26250;45.422;11.100;2023-01-08T11:04:27;11.50;99.70
40556;DHT22;26250;45.422;11.100;2023-01-08T11:06:55;11.60;99.90
40556;DHT22;26250;45.422;11.100;2023-01-08T11:09:45;11.60;99.80
40556;DHT22;26250;45.422;11.100;2023-01-08T11:12:38;11.60;99.50
40556;DHT22;26250;45.422;11.100;2023-01-08T11:15:30;11.60;99.80
40556;DHT22;26250;45.422;11.100;2023-01-08T11:18:25;11.70;99.80
40556;DHT22;26250;45.422;11.100;2023-01-08T11:20:52;11.70;99.70
40556;DHT22;26250;45.422;11.100;2023-01-08T11:23:24;11.70;99.80
40556;DHT22;26250;45.422;11.100;2023-01-08T11:26:10;11.70;99.60
40556;DHT22;26250;45.422;11.100;2023-01-08T11:31:37;11.70;99.90
40556;DHT22;26250;45.422;11.100;2023-01-08T11:34:35;11.80;99.90
40556;DHT22;26250;45.422;11.100;2023-01-08T11:37:13;11.80;99.80
40556;DHT22;26250;45.422;11.100;2023-01-08T11:39:43;11.80;99.60
40556;DHT22;26250;45.422;11.100;2023-01-08T11:47:24;11.80;99.70
40556;DHT22;26250;45.422;11.100;2023-01-08T11:53:13;11.80;99.80
40556;DHT22;26250;45.422;11.100;2023-01-08T11:56:00;11.90;99.90
40556;DHT22;26250;45.422;11.100;2023-01-08T11:58:39;11.90;99.80
40556;DHT22;26250;45.422;11.100;2023-01-08T12:01:33;11.80;99.90
40556;DHT22;26250;45.422;11.100;2023-01-08T12:06:56;11.80;99.90
40556;DHT22;26250;45.422;11.100;2023-01-08T12:10:38;11.90;99.90
40556;DHT22;26250;45.422;11.100;2023-01-08T12:12:40;11.90;99.90
40556;DHT22;26250;45.422;11.100;2023-01-08T12:20:37;11.80;99.90
40556;DHT22;26250;45.422;11.100;2023-01-08T12:23:19;11.90;99.90
40556;DHT22;26250;45.422;11.100;2023-01-08T12:29:03;12.00;99.70
40556;DHT22;26250;45.422;11.100;2023-01-08T12:31:51;11.90;99.90
40556;DHT22;26250;45.422;11.100;2023-01-08T12:34:37;11.90;99.90
40556;DHT22;26250;45.422;11.100;2023-01-08T12:40:01;12.00;99.90
40556;DHT22;26250;45.422;11.100;2023-01-08T12:42:36;12.00;99.90
40556;DHT22;26250;45.422;11.100;2023-01-08T12:45:12;12.10;99.80
40556;DHT22;26250;45.422;11.100;2023-01-08T12:47:41;12.10;99.60
40556;DHT22;26250;45.422;11.100;2023-01-08T13:03:31;12.20;99.60
40556;DHT22;26250;45.422;11.100;2023-01-08T13:06:07;12.30;99.60
40556;DHT22;26250;45.422;11.100;2023-01-08T13:08:36;12.30;99.40
40556;DHT22;26250;45.422;11.100;2023-01-08T13:11:05;12.30;99.20
40556;DHT22;26250;45.422;11.100;2023-01-08T13:13:42;12.30;99.50
40556;DHT22;26250;45.422;11.100;2023-01-08T13:18:37;12.30;99.50
40556;DHT22;26250;45.422;11.100;2023-01-08T13:21:05;12.20;99.90
40556;DHT22;26250;45.422;11.100;2023-01-08T13:23:34;12.00;99.90
40556;DHT22;26250;45.422;11.100;2023-01-08T13:26:04;12.00;99.90
40556;DHT22;26250;45.422;11.100;2023-01-08T13:28:44;12.20;99.90
40556;DHT22;26250;45.422;11.100;2023-01-08T13:33:49;12.00;99.90
40556;DHT22;26250;45.422;11.100;2023-01-08T13:36:22;12.00;99.90
40556;DHT22;26250;45.422;11.100;2023-01-08T13:41:44;11.90;99.90
40556;DHT22;26250;45.422;11.100;2023-01-08T13:45:00;12.00;99.90
40556;DHT22;26250;45.422;11.100;2023-01-08T13:47:34;12.00;99.90
40556;DHT22;26250;45.422;11.100;2023-01-08T13:50:04;11.80;99.90
40556;DHT22;26250;45.422;11.100;2023-01-08T13:52:44;11.70;99.90
40556;DHT22;26250;45.422;11.100;2023-01-08T13:55:20;11.60;99.90
40556;DHT22;26250;45.422;11.100;2023-01-08T13:57:53;11.80;99.90
40556;DHT22;26250;45.422;11.100;2023-01-08T14:00:42;11.90;99.90
40556;DHT22;26250;45.422;11.100;2023-01-08T14:06:25;11.90;99.90
40556;DHT22;26250;45.422;11.100;2023-01-08T14:09:03;11.90;99.80
40556;DHT22;26250;45.422;11.100;2023-01-08T14:11:44;11.80;99.90
40556;DHT22;26250;45.422;11.100;2023-01-08T14:14:14;11.90;99.90
40556;DHT22;26250;45.422;11.100;2023-01-08T14:16:42;12.00;99.90
40556;DHT22;26250;45.422;11.100;2023-01-08T14:19:16;12.10;99.90
40556;DHT22;26250;45.422;11.100;2023-01-08T14:21:57;12.20;99.30
40556;DHT22;26250;45.422;11.100;2023-01-08T14:24:25;12.20;99.40
40556;DHT22;26250;45.422;11.100;2023-01-08T14:26:57;12.30;99.30
40556;DHT22;26250;45.422;11.100;2023-01-08T14:29:26;12.30;99.10
40556;DHT22;26250;45.422;11.100;2023-01-08T14:31:55;12.30;99.10
40556;DHT22;26250;45.422;11.100;2023-01-08T14:34:25;12.40;99.10
40556;DHT22;26250;45.422;11.100;2023-01-08T14:36:54;12.30;98.80
40556;DHT22;26250;45.422;11.100;2023-01-08T14:39:32;12.20;98.80
40556;DHT22;26250;45.422;11.100;2023-01-08T14:42:05;12.30;99.20
40556;DHT22;26250;45.422;11.100;2023-01-08T14:44:56;12.30;99.30
40556;DHT22;26250;45.422;11.100;2023-01-08T14:47:28;12.40;99.10
40556;DHT22;26250;45.422;11.100;2023-01-08T14:49:56;12.50;98.90
40556;DHT22;26250;45.422;11.100;2023-01-08T14:52:23;12.50;98.70
40556;DHT22;26250;45.422;11.100;2023-01-08T14:54:54;12.50;98.70
40556;DHT22;26250;45.422;11.100;2023-01-08T14:57:26;12.60;98.60
40556;DHT22;26250;45.422;11.100;2023-01-08T14:59:56;12.50;98.60
40556;DHT22;26250;45.422;11.100;2023-01-08T15:02:33;12.50;98.60
40556;DHT22;26250;45.422;11.100;2023-01-08T15:07:42;12.70;98.50
40556;DHT22;26250;45.422;11.100;2023-01-08T15:12:56;12.70;98.30
40556;DHT22;26250;45.422;11.100;2023-01-08T15:15:26;12.60;98.20
40556;DHT22;26250;45.422;11.100;2023-01-08T15:17:53;12.60;98.50
40556;DHT22;26250;45.422;11.100;2023-01-08T15:20:21;12.50;98.50
40556;DHT22;26250;45.422;11.100;2023-01-08T15:22:51;12.40;98.70
40556;DHT22;26250;45.422;11.100;2023-01-08T15:25:25;12.30;99.00
40556;DHT22;26250;45.422;11.100;2023-01-08T15:28:01;12.20;99.10
40556;DHT22;26250;45.422;11.100;2023-01-08T15:30:35;12.10;99.40
40556;DHT22;26250;45.422;11.100;2023-01-08T15:33:07;12.00;99.50
40556;DHT22;26250;45.422;11.100;2023-01-08T15:35:34;11.90;99.90
40556;DHT22;26250;45.422;11.100;2023-01-08T15:38:01;11.90;99.90
40556;DHT22;26250;45.422;11.100;2023-01-08T15:40:28;11.90;99.90
40556;DHT22;26250;45.422;11.100;2023-01-08T15:42:55;11.90;99.90
40556;DHT22;26250;45.422;11.100;2023-01-08T15:45:43;12.00;99.90
40556;DHT22;26250;45.422;11.100;2023-01-08T15:48:10;12.00;99.90
40556;DHT22;26250;45.422;11.100;2023-01-08T15:50:39;12.00;99.90
40556;DHT22;26250;45.422;11.100;2023-01-08T15:53:12;12.10;99.80
40556;DHT22;26250;45.422;11.100;2023-01-08T15:55:41;12.10;99.60
40556;DHT22;26250;45.422;11.100;2023-01-08T15:58:10;12.20;99.40
40556;DHT22;26250;45.422;11.100;2023-01-08T16:00:39;12.20;99.60
40556;DHT22;26250;45.422;11.100;2023-01-08T16:03:07;12.20;99.40
40556;DHT22;26250;45.422;11.100;2023-01-08T16:05:35;12.20;99.30
40556;DHT22;26250;45.422;11.100;2023-01-08T16:08:03;12.30;99.30
40556;DHT22;26250;45.422;11.100;2023-01-08T16:10:31;12.30;99.30
40556;DHT22;26250;45.422;11.100;2023-01-08T16:12:59;12.30;99.00
40556;DHT22;26250;45.422;11.100;2023-01-08T16:15:26;12.20;99.10
40556;DHT22;26250;45.422;11.100;2023-01-08T16:17:54;12.20;99.00
40556;DHT22;26250;45.422;11.100;2023-01-08T16:20:21;12.20;98.90
40556;DHT22;26250;45.422;11.100;2023-01-08T16:22:48;12.10;98.80
40556;DHT22;26250;45.422;11.100;2023-01-08T16:25:15;12.10;98.80
40556;DHT22;26250;45.422;11.100;2023-01-08T16:27:42;12.10;98.50
40556;DHT22;26250;45.422;11.100;2023-01-08T16:30:13;12.10;98.80
40556;DHT22;26250;45.422;11.100;2023-01-08T16:32:41;12.20;98.80
40556;DHT22;26250;45.422;11.100;2023-01-08T16:35:09;12.30;98.80
40556;DHT22;26250;45.422;11.100;2023-01-08T16:37:36;12.20;98.80
40556;DHT22;26250;45.422;11.100;2023-01-08T16:40:04;12.30;99.00
40556;DHT22;26250;45.422;11.100;2023-01-08T16:42:31;12.40;98.60
40556;DHT22;26250;45.422;11.100;2023-01-08T16:44:58;12.40;98.50
40556;DHT22;26250;45.422;11.100;2023-01-08T16:47:25;12.30;98.70
40556;DHT22;26250;45.422;11.100;2023-01-08T16:49:52;12.30;98.90
40556;DHT22;26250;45.422;11.100;2023-01-08T16:52:19;12.30;99.00
40556;DHT22;26250;45.422;11.100;2023-01-08T16:54:46;12.30;99.10